createdAt,value
2024-02-04T00:01:33.530Z,100.00
2024-02-04T00:04:01.056Z,100.00
2024-02-04T00:06:28.468Z,100.00
2024-02-04T00:08:55.741Z,100.00
2024-02-04T00:11:23.191Z,100.00
2024-02-04T00:13:50.474Z,100.00
2024-02-04T00:16:17.891Z,100.00
2024-02-04T00:18:45.360Z,100.00
2024-02-04T00:21:12.785Z,100.00
2024-02-04T00:23:40.042Z,100.00
2024-02-04T00:26:07.494Z,100.00
2024-02-04T00:28:34.753Z,100.00
2024-02-04T00:31:02.172Z,100.00
2024-02-04T00:33:29.637Z,100.00
2024-02-04T00:35:57.269Z,100.00
2024-02-04T00:38:24.586Z,100.00
2024-02-04T00:40:55.687Z,100.00
2024-02-04T00:43:23.004Z,100.00
2024-02-04T00:45:50.390Z,100.00
2024-02-04T00:48:18.093Z,100.00
2024-02-04T00:50:45.609Z,100.00
2024-02-04T00:53:12.873Z,100.00
2024-02-04T00:55:40.055Z,100.00
2024-02-04T00:58:07.437Z,100.00
2024-02-04T01:00:35.119Z,100.00
2024-02-04T01:03:03.749Z,100.00
2024-02-04T01:05:31.053Z,100.00
2024-02-04T01:07:58.414Z,100.00
2024-02-04T01:10:25.791Z,100.00
2024-02-04T01:12:53.206Z,100.00
2024-02-04T01:15:20.766Z,100.00
2024-02-04T01:17:47.989Z,100.00
2024-02-04T01:20:15.543Z,100.00
2024-02-04T01:22:42.857Z,100.00
2024-02-04T01:25:10.374Z,100.00
2024-02-04T01:27:37.839Z,100.00
2024-02-04T01:30:06.049Z,100.00
2024-02-04T01:32:33.398Z,100.00
2024-02-04T01:35:00.726Z,100.00
2024-02-04T01:37:28.412Z,100.00
2024-02-04T01:39:55.901Z,100.00
2024-02-04T01:42:23.216Z,100.00
2024-02-04T01:44:51.230Z,100.00
2024-02-04T01:47:19.070Z,100.00
2024-02-04T01:49:46.656Z,100.00
2024-02-04T01:52:14.541Z,100.00
2024-02-04T01:54:44.253Z,100.00
2024-02-04T01:57:13.531Z,100.00
2024-02-04T01:59:41.555Z,100.00
2024-02-04T02:02:10.426Z,100.00
2024-02-04T02:04:38.007Z,100.00
2024-02-04T02:07:07.390Z,100.00
2024-02-04T02:09:34.960Z,100.00
2024-02-04T02:12:13.671Z,100.00
2024-02-04T02:14:45.415Z,100.00
2024-02-04T02:17:19.327Z,100.00
2024-02-04T02:20:23.120Z,100.00
2024-02-04T02:23:03.984Z,100.00
2024-02-04T02:25:32.445Z,100.00
2024-02-04T02:27:59.774Z,100.00
2024-02-04T02:30:27.038Z,100.00
2024-02-04T02:32:54.690Z,100.00
2024-02-04T02:35:22.445Z,100.00
2024-02-04T02:38:26.617Z,100.00
2024-02-04T02:41:06.109Z,100.00
2024-02-04T02:43:35.801Z,100.00
2024-02-04T02:46:03.785Z,100.00
2024-02-04T02:48:31.180Z,100.00
2024-02-04T02:50:59.676Z,100.00
2024-02-04T02:53:26.981Z,100.00
2024-02-04T02:55:55.579Z,100.00
2024-02-04T02:58:23.127Z,100.00
2024-02-04T03:00:50.564Z,100.00
2024-02-04T03:03:19.254Z,100.00
2024-02-04T03:05:46.557Z,100.00
2024-02-04T03:08:13.936Z,100.00
2024-02-04T03:10:41.106Z,100.00
2024-02-04T03:13:08.556Z,100.00
2024-02-04T03:15:36.094Z,100.00
2024-02-04T03:18:04.527Z,100.00
2024-02-04T03:20:31.785Z,100.00
2024-02-04T03:22:59.112Z,100.00
2024-02-04T03:25:27.926Z,100.00
2024-02-04T03:27:56.488Z,100.00
2024-02-04T03:30:23.836Z,100.00
2024-02-04T03:32:51.334Z,100.00
2024-02-04T03:35:18.896Z,100.00
2024-02-04T03:37:46.079Z,100.00
2024-02-04T03:40:13.762Z,100.00
2024-02-04T03:42:42.024Z,100.00
2024-02-04T03:45:10.040Z,100.00
2024-02-04T03:47:37.542Z,100.00
2024-02-04T03:50:05.467Z,100.00
2024-02-04T03:52:33.705Z,100.00
2024-02-04T03:55:01.444Z,100.00
2024-02-04T03:57:31.814Z,100.00
2024-02-04T03:59:59.055Z,100.00
2024-02-04T04:02:26.190Z,100.00
2024-02-04T04:04:54.662Z,100.00
2024-02-04T04:07:22.009Z,100.00
2024-02-04T04:09:49.306Z,100.00
2024-02-04T04:12:16.569Z,100.00
2024-02-04T04:14:43.924Z,100.00
2024-02-04T04:17:11.168Z,100.00
2024-02-04T04:19:40.793Z,100.00
2024-02-04T04:22:08.494Z,100.00
2024-02-04T04:24:35.988Z,100.00
2024-02-04T04:27:03.284Z,100.00
2024-02-04T04:29:31.569Z,100.00
2024-02-04T04:31:58.830Z,100.00
2024-02-04T04:34:26.156Z,100.00
2024-02-04T04:36:53.532Z,100.00
2024-02-04T04:39:20.861Z,100.00
2024-02-04T04:41:49.008Z,100.00
2024-02-04T04:44:16.210Z,100.00
2024-02-04T04:46:43.489Z,100.00
2024-02-04T04:49:11.375Z,100.00
2024-02-04T04:51:38.835Z,100.00
2024-02-04T04:54:06.277Z,100.00
2024-02-04T04:56:42.749Z,100.00
2024-02-04T04:59:10.804Z,100.00
2024-02-04T05:01:38.024Z,100.00
2024-02-04T05:04:06.435Z,100.00
2024-02-04T05:06:34.399Z,100.00
2024-02-04T05:09:01.610Z,100.00
2024-02-04T05:11:29.117Z,100.00
2024-02-04T05:13:56.352Z,100.00
2024-02-04T05:16:24.516Z,100.00
2024-02-04T05:18:51.925Z,100.00
2024-02-04T05:21:19.348Z,100.00
2024-02-04T05:23:46.801Z,100.00
2024-02-04T05:26:14.112Z,100.00
2024-02-04T05:28:41.536Z,100.00
2024-02-04T05:31:09.230Z,100.00
2024-02-04T05:33:36.647Z,100.00
2024-02-04T05:36:04.968Z,100.00
2024-02-04T05:38:32.358Z,100.00
2024-02-04T05:40:59.695Z,100.00
2024-02-04T05:43:27.075Z,100.00
2024-02-04T05:45:54.459Z,100.00
2024-02-04T05:48:22.164Z,100.00
2024-02-04T05:50:49.632Z,100.00
2024-02-04T05:53:17.250Z,100.00
2024-02-04T05:55:45.260Z,100.00
2024-02-04T05:58:15.403Z,100.00
2024-02-04T06:00:42.547Z,100.00
2024-02-04T06:03:10.072Z,100.00
2024-02-04T06:05:37.678Z,100.00
2024-02-04T06:08:05.269Z,100.00
2024-02-04T06:10:32.602Z,100.00
2024-02-04T06:12:59.881Z,100.00
2024-02-04T06:15:27.247Z,100.00
2024-02-04T06:17:54.828Z,100.00
2024-02-04T06:20:22.310Z,100.00
2024-02-04T06:22:49.668Z,100.00
2024-02-04T06:25:17.255Z,100.00
2024-02-04T06:27:44.856Z,100.00
2024-02-04T06:30:13.056Z,100.00
2024-02-04T06:32:40.585Z,100.00
2024-02-04T06:35:08.717Z,100.00
2024-02-04T06:37:35.966Z,100.00
2024-02-04T06:40:03.776Z,100.00
2024-02-04T06:42:31.787Z,100.00
2024-02-04T06:44:59.102Z,100.00
2024-02-04T06:47:27.231Z,100.00
2024-02-04T06:49:54.777Z,100.00
2024-02-04T06:52:21.870Z,100.00
2024-02-04T06:54:49.708Z,100.00
2024-02-04T06:57:17.098Z,100.00
2024-02-04T06:59:45.316Z,100.00
2024-02-04T07:02:12.721Z,100.00
2024-02-04T07:04:39.832Z,100.00
2024-02-04T07:07:08.358Z,100.00
2024-02-04T07:09:35.635Z,100.00
2024-02-04T07:12:03.258Z,100.00
2024-02-04T07:14:30.510Z,100.00
2024-02-04T07:16:57.893Z,100.00
2024-02-04T07:19:25.732Z,100.00
2024-02-04T07:21:53.108Z,100.00
2024-02-04T07:24:22.873Z,100.00
2024-02-04T07:26:50.247Z,100.00
2024-02-04T07:29:17.578Z,100.00
2024-02-04T07:31:45.814Z,100.00
2024-02-04T07:34:13.261Z,100.00
2024-02-04T07:36:41.529Z,100.00
2024-02-04T07:39:08.954Z,100.00
2024-02-04T07:41:36.386Z,100.00
2024-02-04T07:44:04.768Z,100.00
2024-02-04T07:46:32.584Z,100.00
2024-02-04T07:49:00.104Z,100.00
2024-02-04T07:51:27.754Z,100.00
2024-02-04T07:53:55.121Z,100.00
2024-02-04T07:56:23.413Z,100.00
2024-02-04T07:58:50.902Z,100.00
2024-02-04T08:01:20.765Z,100.00
2024-02-04T08:03:48.889Z,100.00
2024-02-04T08:06:16.302Z,100.00
2024-02-04T08:08:46.870Z,100.00
2024-02-04T08:11:19.475Z,100.00
2024-02-04T08:13:47.098Z,100.00
2024-02-04T08:16:14.517Z,100.00
2024-02-04T08:18:42.402Z,100.00
2024-02-04T08:21:10.293Z,100.00
2024-02-04T08:23:37.575Z,100.00
2024-02-04T08:26:05.081Z,100.00
2024-02-04T08:28:32.845Z,100.00
2024-02-04T08:31:00.361Z,100.00
2024-02-04T08:33:28.141Z,100.00
2024-02-04T08:35:55.734Z,100.00
2024-02-04T08:38:22.985Z,100.00
2024-02-04T08:40:50.442Z,100.00
2024-02-04T08:43:17.940Z,100.00
2024-02-04T08:45:45.368Z,100.00
2024-02-04T08:48:12.730Z,100.00
2024-02-04T08:50:40.092Z,100.00
2024-02-04T08:53:07.561Z,100.00
2024-02-04T08:55:35.026Z,100.00
2024-02-04T08:58:02.835Z,100.00
2024-02-04T09:00:30.273Z,100.00
2024-02-04T09:02:58.400Z,100.00
2024-02-04T09:05:25.802Z,100.00
2024-02-04T09:07:53.417Z,100.00
2024-02-04T09:10:23.397Z,100.00
2024-02-04T09:12:50.885Z,100.00
2024-02-04T09:15:18.592Z,100.00
2024-02-04T09:17:46.039Z,100.00
2024-02-04T09:20:14.273Z,100.00
2024-02-04T09:22:42.332Z,100.00
2024-02-04T09:25:10.165Z,100.00
2024-02-04T09:27:39.044Z,100.00
2024-02-04T09:30:07.266Z,100.00
2024-02-04T09:32:35.560Z,100.00
2024-02-04T09:35:03.678Z,100.00
2024-02-04T09:37:31.536Z,100.00
2024-02-04T09:39:58.958Z,100.00
2024-02-04T09:42:26.578Z,99.90
2024-02-04T09:44:54.415Z,98.98
2024-02-04T09:47:24.591Z,98.02
2024-02-04T09:49:53.969Z,97.95
2024-02-04T09:52:29.796Z,97.31
2024-02-04T09:55:01.778Z,97.51
2024-02-04T09:57:35.203Z,95.26
2024-02-04T10:00:10.114Z,94.06
2024-02-04T10:02:43.404Z,93.18
2024-02-04T10:05:12.307Z,92.56
2024-02-04T10:07:40.591Z,91.06
2024-02-04T10:10:09.794Z,91.85
2024-02-04T10:12:39.355Z,90.76
2024-02-04T10:15:08.048Z,90.52
2024-02-04T10:17:35.415Z,90.93
2024-02-04T10:20:04.068Z,89.58
2024-02-04T10:22:32.700Z,89.37
2024-02-04T10:25:16.358Z,88.13
2024-02-04T10:27:44.713Z,88.32
2024-02-04T10:30:24.677Z,87.24
2024-02-04T10:33:27.892Z,86.39
2024-02-04T10:35:56.557Z,88.00
2024-02-04T10:38:26.356Z,87.76
2024-02-04T10:40:55.671Z,86.03
2024-02-04T10:43:25.232Z,86.47
2024-02-04T10:45:57.210Z,86.37
2024-02-04T10:48:27.735Z,84.34
2024-02-04T10:51:01.315Z,84.10
2024-02-04T10:53:28.914Z,84.54
2024-02-04T10:56:00.589Z,83.68
2024-02-04T10:58:29.058Z,84.24
2024-02-04T11:00:56.707Z,83.51
2024-02-04T11:03:29.188Z,82.75
2024-02-04T11:06:25.476Z,82.18
2024-02-04T11:09:19.072Z,82.33
2024-02-04T11:11:47.628Z,82.77
2024-02-04T11:14:20.627Z,81.79
2024-02-04T11:16:57.214Z,83.33
2024-02-04T11:19:53.926Z,81.67
2024-02-04T11:23:08.832Z,81.92
2024-02-04T11:25:50.770Z,80.51
2024-02-04T11:28:24.446Z,78.87
2024-02-04T11:30:54.596Z,79.17
2024-02-04T11:33:23.667Z,79.00
2024-02-04T11:36:08.971Z,78.99
2024-02-04T11:38:39.837Z,80.79
2024-02-04T11:41:12.290Z,79.93
2024-02-04T11:43:40.423Z,78.81
2024-02-04T11:46:08.488Z,79.29
2024-02-04T11:48:38.532Z,78.89
2024-02-04T11:51:07.849Z,79.69
2024-02-04T11:53:36.123Z,79.86
2024-02-04T11:56:05.103Z,80.13
2024-02-04T11:58:33.825Z,78.89
2024-02-04T12:01:04.603Z,78.76
2024-02-04T12:03:34.083Z,79.51
2024-02-04T12:06:02.415Z,78.74
2024-02-04T12:08:33.183Z,77.96
2024-02-04T12:11:01.784Z,76.12
2024-02-04T12:13:30.627Z,76.18
2024-02-04T12:15:58.247Z,74.55
2024-02-04T12:18:25.982Z,72.58
2024-02-04T12:20:54.387Z,72.53
2024-02-04T12:23:24.966Z,71.03
2024-02-04T12:25:52.471Z,69.13
2024-02-04T12:28:22.440Z,66.80
2024-02-04T12:30:58.756Z,67.52
2024-02-04T12:33:26.345Z,70.38
2024-02-04T12:35:54.108Z,72.17
2024-02-04T12:38:21.687Z,75.47
2024-02-04T12:40:49.078Z,77.34
2024-02-04T12:43:18.027Z,79.70
2024-02-04T12:45:45.617Z,81.77
2024-02-04T12:48:19.660Z,83.01
2024-02-04T12:50:51.408Z,82.22
2024-02-04T12:53:21.171Z,82.01
2024-02-04T12:55:49.041Z,82.83
2024-02-04T12:58:25.484Z,83.98
2024-02-04T13:01:03.528Z,83.94
2024-02-04T13:03:31.541Z,85.27
2024-02-04T13:08:30.941Z,85.10
2024-02-04T13:10:58.949Z,85.79
2024-02-04T13:13:30.534Z,86.51
2024-02-04T13:15:58.695Z,85.21
2024-02-04T13:18:26.463Z,86.71
2024-02-04T13:20:54.221Z,86.50
2024-02-04T13:23:22.757Z,85.23
2024-02-04T13:25:50.246Z,85.32
2024-02-04T13:28:20.092Z,85.68
2024-02-04T13:30:48.353Z,85.57
2024-02-04T13:33:17.997Z,86.28
2024-02-04T13:35:53.950Z,86.19
2024-02-04T13:38:24.080Z,86.30
2024-02-04T13:40:52.256Z,86.97
2024-02-04T13:43:20.209Z,87.33
2024-02-04T13:45:48.032Z,87.56
2024-02-04T13:48:15.539Z,87.51
2024-02-04T13:50:46.320Z,88.57
2024-02-04T13:53:14.993Z,88.65
2024-02-04T13:55:42.343Z,89.22
2024-02-04T13:58:10.435Z,89.58
2024-02-04T14:00:38.878Z,89.28
2024-02-04T14:03:08.030Z,89.24
2024-02-04T14:05:35.975Z,90.44
2024-02-04T14:08:05.091Z,90.80
2024-02-04T14:10:33.093Z,91.11
2024-02-04T14:13:00.897Z,91.79
2024-02-04T14:15:28.869Z,91.89
2024-02-04T14:17:56.439Z,91.85
2024-02-04T14:20:23.832Z,92.37
2024-02-04T14:22:52.509Z,92.75
2024-02-04T14:25:20.962Z,92.97
2024-02-04T14:27:48.740Z,93.88
2024-02-04T14:30:18.757Z,94.11
2024-02-04T14:32:46.512Z,94.63
2024-02-04T14:35:14.560Z,94.12
2024-02-04T14:37:42.238Z,94.23
2024-02-04T14:40:12.064Z,94.33
2024-02-04T14:42:43.689Z,94.92
2024-02-04T14:45:12.613Z,95.93
2024-02-04T14:47:40.451Z,95.72
2024-02-04T14:50:08.180Z,96.55
2024-02-04T14:52:36.042Z,95.70
2024-02-04T14:55:03.555Z,96.56
2024-02-04T14:57:32.849Z,96.08
2024-02-04T15:00:00.279Z,96.69
2024-02-04T15:02:27.837Z,97.39
2024-02-04T15:04:56.431Z,97.53
2024-02-04T15:07:23.883Z,98.13
2024-02-04T15:09:55.088Z,97.97
2024-02-04T15:12:23.109Z,97.31
2024-02-04T15:14:50.969Z,96.17
2024-02-04T15:17:18.702Z,96.44
2024-02-04T15:19:46.284Z,97.59
2024-02-04T15:22:15.056Z,96.01
2024-02-04T15:24:42.670Z,95.91
2024-02-04T15:27:10.329Z,96.15
2024-02-04T15:29:39.618Z,97.30
2024-02-04T15:32:07.861Z,97.92
2024-02-04T15:34:37.431Z,98.19
2024-02-04T15:37:05.761Z,98.60
2024-02-04T15:39:35.095Z,99.10
2024-02-04T15:42:02.696Z,99.90
2024-02-04T15:44:30.878Z,99.32
2024-02-04T15:47:00.489Z,99.96
2024-02-04T15:49:29.506Z,98.31
2024-02-04T15:51:57.353Z,97.79
2024-02-04T15:54:29.147Z,98.18
2024-02-04T15:57:06.313Z,98.48
2024-02-04T15:59:50.375Z,98.85
2024-02-04T16:02:18.627Z,98.60
2024-02-04T16:04:47.234Z,98.24
2024-02-04T16:07:16.980Z,97.46
2024-02-04T16:09:49.582Z,97.92
2024-02-04T16:12:21.082Z,97.97
2024-02-04T16:14:50.772Z,98.63
2024-02-04T16:17:21.191Z,98.74
2024-02-04T16:19:49.421Z,97.73
2024-02-04T16:22:18.652Z,98.45
2024-02-04T16:24:47.840Z,98.41
2024-02-04T16:27:15.223Z,98.71
2024-02-04T16:29:45.736Z,99.65
2024-02-04T16:32:13.322Z,99.45
2024-02-04T16:34:40.936Z,100.00
2024-02-04T16:37:10.777Z,100.00
2024-02-04T16:39:40.382Z,100.00
2024-02-04T16:42:10.224Z,100.00
2024-02-04T16:44:37.760Z,100.00
2024-02-04T16:47:05.268Z,100.00
2024-02-04T16:49:32.973Z,100.00
2024-02-04T16:52:01.590Z,100.00
2024-02-04T16:54:31.789Z,100.00
2024-02-04T16:56:59.798Z,100.00
2024-02-04T16:59:27.280Z,100.00
2024-02-04T17:01:54.713Z,100.00
2024-02-04T17:04:24.367Z,100.00
2024-02-04T17:06:52.180Z,100.00
2024-02-04T17:09:20.746Z,100.00
2024-02-04T17:11:48.592Z,100.00
2024-02-04T17:14:16.898Z,100.00
2024-02-04T17:17:03.158Z,100.00
2024-02-04T17:20:08.571Z,100.00
2024-02-04T17:22:37.353Z,100.00
2024-02-04T17:25:06.568Z,100.00
2024-02-04T17:27:45.503Z,100.00
2024-02-04T17:30:16.107Z,100.00
2024-02-04T17:32:44.557Z,100.00
2024-02-04T17:35:12.200Z,100.00
2024-02-04T17:37:41.249Z,100.00
2024-02-04T17:40:10.567Z,100.00
2024-02-04T17:42:41.331Z,100.00
2024-02-04T17:45:10.072Z,100.00
2024-02-04T17:47:38.006Z,100.00
2024-02-04T17:50:07.237Z,99.94
2024-02-04T17:52:36.148Z,99.92
2024-02-04T17:55:03.996Z,100.00
2024-02-04T17:57:33.470Z,99.56
2024-02-04T18:00:01.687Z,99.57
2024-02-04T18:02:41.773Z,99.79
2024-02-04T18:05:14.543Z,99.39
2024-02-04T18:07:45.412Z,99.87
2024-02-04T18:10:13.587Z,100.00
2024-02-04T18:12:41.951Z,99.55
2024-02-04T18:15:10.291Z,99.66
2024-02-04T18:17:38.392Z,99.36
2024-02-04T18:20:07.712Z,99.75
2024-02-04T18:22:38.557Z,99.56
2024-02-04T18:25:06.398Z,98.76
2024-02-04T18:27:35.584Z,98.65
2024-02-04T18:30:04.705Z,97.78
2024-02-04T18:32:33.506Z,99.47
2024-02-04T18:35:01.775Z,98.48
2024-02-04T18:37:32.789Z,97.96
2024-02-04T18:40:01.495Z,98.40
2024-02-04T18:42:35.007Z,97.16
2024-02-04T18:45:04.682Z,98.42
2024-02-04T18:47:34.419Z,97.98
2024-02-04T18:50:03.425Z,97.98
2024-02-04T18:52:34.964Z,98.67
2024-02-04T18:55:02.539Z,98.07
2024-02-04T18:57:31.852Z,99.48
2024-02-04T18:59:59.684Z,98.97
2024-02-04T19:02:27.378Z,99.37
2024-02-04T19:04:54.737Z,99.16
2024-02-04T19:07:22.054Z,99.56
2024-02-04T19:09:50.901Z,100.00
2024-02-04T19:12:19.568Z,99.95
2024-02-04T19:14:46.909Z,100.00
2024-02-04T19:17:14.271Z,100.00
2024-02-04T19:19:43.981Z,100.00
2024-02-04T19:22:11.574Z,100.00
2024-02-04T19:24:40.292Z,100.00
2024-02-04T19:27:10.880Z,100.00
2024-02-04T19:29:38.765Z,100.00
2024-02-04T19:32:06.960Z,100.00
2024-02-04T19:34:34.739Z,100.00
2024-02-04T19:37:02.071Z,100.00
2024-02-04T19:39:29.283Z,100.00
2024-02-04T19:41:57.993Z,100.00
2024-02-04T19:44:25.698Z,100.00
2024-02-04T19:46:52.898Z,100.00
2024-02-04T19:49:20.266Z,100.00
2024-02-04T19:51:48.807Z,100.00
2024-02-04T19:54:16.263Z,100.00
2024-02-04T19:56:43.480Z,100.00
2024-02-04T19:59:11.998Z,100.00
2024-02-04T20:01:39.301Z,100.00
2024-02-04T20:04:08.649Z,100.00
2024-02-04T20:06:36.158Z,100.00
2024-02-04T20:09:06.387Z,100.00
2024-02-04T20:11:33.938Z,100.00
2024-02-04T20:14:01.203Z,100.00
2024-02-04T20:16:29.330Z,100.00
2024-02-04T20:18:58.016Z,100.00
2024-02-04T20:21:25.332Z,100.00
2024-02-04T20:23:52.484Z,100.00
2024-02-04T20:26:19.861Z,100.00
2024-02-04T20:28:48.903Z,100.00
2024-02-04T20:31:16.473Z,100.00
2024-02-04T20:33:44.339Z,100.00
2024-02-04T20:36:11.638Z,100.00
2024-02-04T20:38:38.963Z,100.00
2024-02-04T20:41:06.676Z,100.00
2024-02-04T20:43:33.851Z,100.00
2024-02-04T20:46:02.446Z,100.00
2024-02-04T20:48:30.990Z,100.00
2024-02-04T20:50:58.115Z,100.00
2024-02-04T20:53:26.447Z,100.00
2024-02-04T20:55:56.225Z,100.00
2024-02-04T20:58:23.987Z,100.00
2024-02-04T21:00:51.435Z,100.00
2024-02-04T21:03:19.767Z,100.00
2024-02-04T21:05:47.342Z,100.00
2024-02-04T21:08:14.526Z,100.00
2024-02-04T21:10:41.671Z,100.00
2024-02-04T21:13:10.303Z,100.00
2024-02-04T21:15:38.260Z,100.00
2024-02-04T21:18:11.272Z,100.00
2024-02-04T21:20:38.554Z,100.00
2024-02-04T21:23:05.712Z,100.00
2024-02-04T21:25:33.414Z,100.00
2024-02-04T21:28:02.434Z,100.00
2024-02-04T21:30:31.787Z,100.00
2024-02-04T21:33:01.011Z,100.00
2024-02-04T21:35:28.596Z,100.00
2024-02-04T21:37:56.592Z,100.00
2024-02-04T21:40:23.876Z,100.00
2024-02-04T21:42:51.901Z,100.00
2024-02-04T21:45:19.450Z,100.00
2024-02-04T21:47:46.839Z,100.00
2024-02-04T21:50:15.121Z,100.00
2024-02-04T21:52:42.536Z,100.00
2024-02-04T21:55:10.011Z,100.00
2024-02-04T21:57:37.454Z,100.00
2024-02-04T22:00:05.069Z,100.00
2024-02-04T22:02:33.038Z,100.00
2024-02-04T22:05:00.234Z,100.00
2024-02-04T22:07:28.491Z,100.00
2024-02-04T22:09:57.827Z,100.00
2024-02-04T22:12:25.058Z,100.00
2024-02-04T22:14:52.129Z,100.00
2024-02-04T22:17:19.626Z,100.00
2024-02-04T22:19:46.912Z,100.00
2024-02-04T22:22:14.662Z,100.00
2024-02-04T22:24:42.248Z,100.00
2024-02-04T22:27:09.525Z,100.00
2024-02-04T22:29:36.948Z,100.00
2024-02-04T22:32:06.787Z,100.00
2024-02-04T22:34:35.108Z,100.00
2024-02-04T22:37:03.762Z,100.00
2024-02-04T22:39:31.182Z,100.00
2024-02-04T22:41:59.146Z,100.00
2024-02-04T22:44:26.245Z,100.00
2024-02-04T22:46:53.937Z,100.00
2024-02-04T22:49:21.992Z,100.00
2024-02-04T22:51:49.464Z,100.00
2024-02-04T22:54:16.740Z,100.00
2024-02-04T22:56:43.936Z,99.08
2024-02-04T22:59:11.353Z,97.86
2024-02-04T23:01:39.006Z,97.98
2024-02-04T23:04:06.505Z,97.16
2024-02-04T23:06:33.740Z,97.51
2024-02-04T23:09:01.057Z,97.24
2024-02-04T23:11:28.459Z,97.98
2024-02-04T23:13:55.816Z,97.45
2024-02-04T23:16:23.071Z,95.98
2024-02-04T23:18:50.506Z,95.23
2024-02-04T23:21:18.733Z,95.63
2024-02-04T23:23:45.905Z,95.27
2024-02-04T23:26:13.697Z,96.25
2024-02-04T23:28:42.057Z,95.19
2024-02-04T23:31:09.283Z,95.91
2024-02-04T23:33:37.159Z,97.32
2024-02-04T23:36:04.674Z,96.42
2024-02-04T23:38:31.963Z,96.62
2024-02-04T23:40:59.334Z,96.88
2024-02-04T23:43:28.270Z,96.89
2024-02-04T23:45:56.846Z,96.54
2024-02-04T23:48:24.281Z,96.98
2024-02-04T23:50:51.539Z,97.55
2024-02-04T23:53:18.793Z,97.54
2024-02-04T23:55:46.029Z,97.92
2024-02-04T23:58:13.597Z,97.29
